sensor_id;sensor_type;location;lat;lon;timestamp;P1;durP1;ratioP1;P2;durP2;ratioP2
16660;SDS011;8444;52.012;5.048;2022-10-15T00:01:09;45.17;;;27.33;;
16660;SDS011;8444;52.012;5.048;2022-10-15T00:03:35;51.50;;;28.50;;
16660;SDS011;8444;52.012;5.048;2022-10-15T00:06:08;45.97;;;28.40;;
16660;SDS011;8444;52.012;5.048;2022-10-15T00:08:34;47.08;;;27.60;;
16660;SDS011;8444;52.012;5.048;2022-10-15T00:11:07;44.10;;;26.05;;
16660;SDS011;8444;52.012;5.048;2022-10-15T00:13:32;45.53;;;27.08;;
16660;SDS011;8444;52.012;5.048;2022-10-15T00:15:58;51.03;;;28.65;;
16660;SDS011;8444;52.012;5.048;2022-10-15T00:18:23;49.90;;;28.63;;
16660;SDS011;8444;52.012;5.048;2022-10-15T00:20:48;50.00;;;30.38;;
16660;SDS011;8444;52.012;5.048;2022-10-15T00:23:13;53.03;;;29.70;;
16660;SDS011;8444;52.012;5.048;2022-10-15T00:25:38;46.97;;;27.02;;
16660;SDS011;8444;52.012;5.048;2022-10-15T00:28:06;51.08;;;31.33;;
16660;SDS011;8444;52.012;5.048;2022-10-15T00:30:31;50.55;;;28.08;;
16660;SDS011;8444;52.012;5.048;2022-10-15T00:32:56;47.17;;;28.33;;
16660;SDS011;8444;52.012;5.048;2022-10-15T00:35:21;52.08;;;30.48;;
16660;SDS011;8444;52.012;5.048;2022-10-15T00:37:46;52.33;;;28.35;;
16660;SDS011;8444;52.012;5.048;2022-10-15T00:40:12;54.42;;;30.42;;
16660;SDS011;8444;52.012;5.048;2022-10-15T00:42:39;49.78;;;29.63;;
16660;SDS011;8444;52.012;5.048;2022-10-15T00:45:04;53.80;;;29.15;;
16660;SDS011;8444;52.012;5.048;2022-10-15T00:47:47;54.50;;;29.80;;
16660;SDS011;8444;52.012;5.048;2022-10-15T00:50:14;50.67;;;28.02;;
16660;SDS011;8444;52.012;5.048;2022-10-15T00:57:34;59.45;;;29.92;;
16660;SDS011;8444;52.012;5.048;2022-10-15T01:00:03;52.95;;;28.95;;
16660;SDS011;8444;52.012;5.048;2022-10-15T01:02:28;51.83;;;30.30;;
16660;SDS011;8444;52.012;5.048;2022-10-15T01:04:54;57.47;;;30.95;;
16660;SDS011;8444;52.012;5.048;2022-10-15T01:07:19;57.15;;;31.27;;
16660;SDS011;8444;52.012;5.048;2022-10-15T01:09:44;61.10;;;32.08;;
16660;SDS011;8444;52.012;5.048;2022-10-15T01:12:12;57.38;;;30.42;;
16660;SDS011;8444;52.012;5.048;2022-10-15T01:14:43;57.97;;;32.72;;
16660;SDS011;8444;52.012;5.048;2022-10-15T01:22:16;63.50;;;33.15;;
16660;SDS011;8444;52.012;5.048;2022-10-15T01:27:28;64.17;;;32.87;;
16660;SDS011;8444;52.012;5.048;2022-10-15T01:30:57;60.03;;;30.77;;
16660;SDS011;8444;52.012;5.048;2022-10-15T01:37:53;64.80;;;35.05;;
16660;SDS011;8444;52.012;5.048;2022-10-15T01:40:23;70.90;;;37.05;;
16660;SDS011;8444;52.012;5.048;2022-10-15T01:42:53;65.28;;;33.78;;
16660;SDS011;8444;52.012;5.048;2022-10-15T01:45:21;68.72;;;34.30;;
16660;SDS011;8444;52.012;5.048;2022-10-15T01:47:57;62.38;;;35.65;;
16660;SDS011;8444;52.012;5.048;2022-10-15T01:50:24;68.75;;;34.25;;
16660;SDS011;8444;52.012;5.048;2022-10-15T01:52:50;78.85;;;37.38;;
16660;SDS011;8444;52.012;5.048;2022-10-15T01:55:16;66.40;;;34.20;;
16660;SDS011;8444;52.012;5.048;2022-10-15T01:57:43;72.72;;;36.65;;
16660;SDS011;8444;52.012;5.048;2022-10-15T02:00:09;66.43;;;35.42;;
16660;SDS011;8444;52.012;5.048;2022-10-15T02:02:34;70.43;;;36.78;;
16660;SDS011;8444;52.012;5.048;2022-10-15T02:04:59;65.97;;;34.28;;
16660;SDS011;8444;52.012;5.048;2022-10-15T02:10:20;68.18;;;36.65;;
16660;SDS011;8444;52.012;5.048;2022-10-15T02:17:53;62.00;;;34.33;;
16660;SDS011;8444;52.012;5.048;2022-10-15T02:20:23;59.13;;;34.47;;
16660;SDS011;8444;52.012;5.048;2022-10-15T02:25:15;56.97;;;33.78;;
16660;SDS011;8444;52.012;5.048;2022-10-15T02:27:42;57.17;;;31.80;;
16660;SDS011;8444;52.012;5.048;2022-10-15T02:30:08;59.03;;;34.65;;
16660;SDS011;8444;52.012;5.048;2022-10-15T02:32:34;68.28;;;35.42;;
16660;SDS011;8444;52.012;5.048;2022-10-15T02:35:01;61.28;;;34.42;;
16660;SDS011;8444;52.012;5.048;2022-10-15T02:37:26;69.63;;;37.30;;
16660;SDS011;8444;52.012;5.048;2022-10-15T02:39:53;56.53;;;31.15;;
16660;SDS011;8444;52.012;5.048;2022-10-15T02:42:18;62.40;;;35.17;;
16660;SDS011;8444;52.012;5.048;2022-10-15T02:44:44;65.10;;;35.08;;
16660;SDS011;8444;52.012;5.048;2022-10-15T02:47:09;54.45;;;32.70;;
16660;SDS011;8444;52.012;5.048;2022-10-15T02:49:35;60.47;;;33.95;;
16660;SDS011;8444;52.012;5.048;2022-10-15T02:52:00;63.70;;;34.67;;
16660;SDS011;8444;52.012;5.048;2022-10-15T02:54:25;50.30;;;28.77;;
16660;SDS011;8444;52.012;5.048;2022-10-15T02:56:50;59.17;;;32.30;;
16660;SDS011;8444;52.012;5.048;2022-10-15T02:59:16;54.35;;;31.98;;
16660;SDS011;8444;52.012;5.048;2022-10-15T03:01:42;57.80;;;31.85;;
16660;SDS011;8444;52.012;5.048;2022-10-15T03:04:07;53.33;;;31.70;;
16660;SDS011;8444;52.012;5.048;2022-10-15T03:06:32;44.28;;;29.30;;
16660;SDS011;8444;52.012;5.048;2022-10-15T03:08:58;50.65;;;30.05;;
16660;SDS011;8444;52.012;5.048;2022-10-15T03:11:23;51.17;;;29.60;;
16660;SDS011;8444;52.012;5.048;2022-10-15T03:13:48;54.63;;;29.88;;
16660;SDS011;8444;52.012;5.048;2022-10-15T03:16:13;48.38;;;29.65;;
16660;SDS011;8444;52.012;5.048;2022-10-15T03:18:39;46.60;;;28.48;;
16660;SDS011;8444;52.012;5.048;2022-10-15T03:21:04;49.83;;;28.77;;
16660;SDS011;8444;52.012;5.048;2022-10-15T03:23:30;47.72;;;28.38;;
16660;SDS011;8444;52.012;5.048;2022-10-15T03:25:55;50.03;;;28.77;;
16660;SDS011;8444;52.012;5.048;2022-10-15T03:28:21;45.37;;;27.63;;
16660;SDS011;8444;52.012;5.048;2022-10-15T03:30:47;44.43;;;26.70;;
16660;SDS011;8444;52.012;5.048;2022-10-15T03:33:12;56.10;;;30.30;;
16660;SDS011;8444;52.012;5.048;2022-10-15T03:35:37;49.10;;;29.57;;
16660;SDS011;8444;52.012;5.048;2022-10-15T03:38:03;46.30;;;28.17;;
16660;SDS011;8444;52.012;5.048;2022-10-15T03:40:28;46.13;;;27.40;;
16660;SDS011;8444;52.012;5.048;2022-10-15T03:42:54;56.30;;;31.20;;
16660;SDS011;8444;52.012;5.048;2022-10-15T03:45:20;43.70;;;27.87;;
16660;SDS011;8444;52.012;5.048;2022-10-15T03:47:45;47.83;;;27.87;;
16660;SDS011;8444;52.012;5.048;2022-10-15T03:50:11;53.53;;;30.07;;
16660;SDS011;8444;52.012;5.048;2022-10-15T03:52:36;52.13;;;29.97;;
16660;SDS011;8444;52.012;5.048;2022-10-15T03:55:02;48.90;;;28.77;;
16660;SDS011;8444;52.012;5.048;2022-10-15T03:57:27;48.93;;;29.40;;
16660;SDS011;8444;52.012;5.048;2022-10-15T03:59:52;48.07;;;28.20;;
16660;SDS011;8444;52.012;5.048;2022-10-15T04:02:17;45.80;;;27.43;;
16660;SDS011;8444;52.012;5.048;2022-10-15T04:04:43;46.03;;;27.27;;
16660;SDS011;8444;52.012;5.048;2022-10-15T04:07:08;40.67;;;25.07;;
16660;SDS011;8444;52.012;5.048;2022-10-15T04:09:33;46.40;;;28.97;;
16660;SDS011;8444;52.012;5.048;2022-10-15T04:11:58;52.07;;;30.37;;
16660;SDS011;8444;52.012;5.048;2022-10-15T04:14:23;50.87;;;28.33;;
16660;SDS011;8444;52.012;5.048;2022-10-15T04:16:49;53.67;;;30.67;;
16660;SDS011;8444;52.012;5.048;2022-10-15T04:19:14;50.87;;;30.27;;
16660;SDS011;8444;52.012;5.048;2022-10-15T04:21:40;54.83;;;31.37;;
16660;SDS011;8444;52.012;5.048;2022-10-15T04:24:05;58.97;;;31.07;;
16660;SDS011;8444;52.012;5.048;2022-10-15T04:26:30;55.80;;;32.10;;
16660;SDS011;8444;52.012;5.048;2022-10-15T04:28:55;59.83;;;32.87;;
16660;SDS011;8444;52.012;5.048;2022-10-15T04:31:20;57.63;;;32.00;;
16660;SDS011;8444;52.012;5.048;2022-10-15T04:33:48;61.50;;;32.50;;
16660;SDS011;8444;52.012;5.048;2022-10-15T04:36:14;57.13;;;33.03;;
16660;SDS011;8444;52.012;5.048;2022-10-15T04:38:39;62.17;;;35.90;;
16660;SDS011;8444;52.012;5.048;2022-10-15T04:41:08;60.13;;;34.83;;
16660;SDS011;8444;52.012;5.048;2022-10-15T04:43:34;69.37;;;37.30;;
16660;SDS011;8444;52.012;5.048;2022-10-15T04:46:00;64.67;;;34.77;;
16660;SDS011;8444;52.012;5.048;2022-10-15T04:48:26;65.85;;;35.75;;
16660;SDS011;8444;52.012;5.048;2022-10-15T04:50:52;58.92;;;36.47;;
16660;SDS011;8444;52.012;5.048;2022-10-15T04:53:17;66.25;;;34.65;;
16660;SDS011;8444;52.012;5.048;2022-10-15T04:55:42;54.10;;;32.55;;
16660;SDS011;8444;52.012;5.048;2022-10-15T04:58:07;63.25;;;35.05;;
16660;SDS011;8444;52.012;5.048;2022-10-15T05:00:32;59.72;;;34.75;;
16660;SDS011;8444;52.012;5.048;2022-10-15T05:02:58;55.20;;;32.92;;
16660;SDS011;8444;52.012;5.048;2022-10-15T05:05:23;60.28;;;35.00;;
16660;SDS011;8444;52.012;5.048;2022-10-15T05:07:48;62.05;;;35.67;;
16660;SDS011;8444;52.012;5.048;2022-10-15T05:10:13;62.10;;;36.38;;
16660;SDS011;8444;52.012;5.048;2022-10-15T05:12:38;65.20;;;34.60;;
16660;SDS011;8444;52.012;5.048;2022-10-15T05:15:04;62.25;;;36.95;;
16660;SDS011;8444;52.012;5.048;2022-10-15T05:17:29;59.08;;;33.53;;
16660;SDS011;8444;52.012;5.048;2022-10-15T05:19:54;63.92;;;35.30;;
16660;SDS011;8444;52.012;5.048;2022-10-15T05:22:20;69.07;;;37.22;;
16660;SDS011;8444;52.012;5.048;2022-10-15T05:24:45;72.03;;;36.85;;
16660;SDS011;8444;52.012;5.048;2022-10-15T05:27:10;69.75;;;37.08;;
16660;SDS011;8444;52.012;5.048;2022-10-15T05:29:35;77.10;;;37.97;;
16660;SDS011;8444;52.012;5.048;2022-10-15T05:32:02;79.95;;;38.28;;
16660;SDS011;8444;52.012;5.048;2022-10-15T05:34:27;81.00;;;39.28;;
16660;SDS011;8444;52.012;5.048;2022-10-15T05:36:54;87.80;;;39.53;;
16660;SDS011;8444;52.012;5.048;2022-10-15T05:39:19;89.93;;;38.60;;
16660;SDS011;8444;52.012;5.048;2022-10-15T05:41:44;83.72;;;38.58;;
16660;SDS011;8444;52.012;5.048;2022-10-15T05:44:10;98.10;;;40.78;;
16660;SDS011;8444;52.012;5.048;2022-10-15T05:46:35;105.35;;;42.42;;
16660;SDS011;8444;52.012;5.048;2022-10-15T05:49:00;100.90;;;42.65;;
16660;SDS011;8444;52.012;5.048;2022-10-15T05:51:26;97.53;;;42.33;;
16660;SDS011;8444;52.012;5.048;2022-10-15T05:53:52;95.72;;;40.78;;
16660;SDS011;8444;52.012;5.048;2022-10-15T05:56:17;103.18;;;43.60;;
16660;SDS011;8444;52.012;5.048;2022-10-15T05:58:42;98.80;;;43.00;;
16660;SDS011;8444;52.012;5.048;2022-10-15T06:01:09;97.88;;;40.97;;
16660;SDS011;8444;52.012;5.048;2022-10-15T06:03:34;115.22;;;42.88;;
16660;SDS011;8444;52.012;5.048;2022-10-15T06:06:00;107.13;;;41.42;;
16660;SDS011;8444;52.012;5.048;2022-10-15T06:08:26;97.85;;;41.15;;
16660;SDS011;8444;52.012;5.048;2022-10-15T06:10:51;100.93;;;41.83;;
16660;SDS011;8444;52.012;5.048;2022-10-15T06:13:16;102.95;;;39.90;;
16660;SDS011;8444;52.012;5.048;2022-10-15T06:15:43;103.95;;;41.70;;
16660;SDS011;8444;52.012;5.048;2022-10-15T06:18:08;103.78;;;41.08;;
16660;SDS011;8444;52.012;5.048;2022-10-15T06:20:34;96.93;;;39.33;;
16660;SDS011;8444;52.012;5.048;2022-10-15T06:23:00;98.25;;;42.05;;
16660;SDS011;8444;52.012;5.048;2022-10-15T06:25:25;98.93;;;38.28;;
16660;SDS011;8444;52.012;5.048;2022-10-15T06:27:51;108.60;;;42.97;;
16660;SDS011;8444;52.012;5.048;2022-10-15T06:30:16;107.53;;;40.40;;
16660;SDS011;8444;52.012;5.048;2022-10-15T06:32:46;105.85;;;41.00;;
16660;SDS011;8444;52.012;5.048;2022-10-15T06:35:11;98.20;;;38.28;;
16660;SDS011;8444;52.012;5.048;2022-10-15T06:37:36;99.15;;;40.40;;
16660;SDS011;8444;52.012;5.048;2022-10-15T06:40:01;92.15;;;38.33;;
16660;SDS011;8444;52.012;5.048;2022-10-15T06:42:26;86.25;;;37.15;;
16660;SDS011;8444;52.012;5.048;2022-10-15T06:44:52;71.97;;;32.90;;
16660;SDS011;8444;52.012;5.048;2022-10-15T06:47:17;73.53;;;31.92;;
16660;SDS011;8444;52.012;5.048;2022-10-15T06:49:42;69.30;;;31.05;;
16660;SDS011;8444;52.012;5.048;2022-10-15T06:52:07;69.88;;;31.83;;
16660;SDS011;8444;52.012;5.048;2022-10-15T06:54:32;70.22;;;30.27;;
16660;SDS011;8444;52.012;5.048;2022-10-15T06:56:58;74.32;;;33.15;;
16660;SDS011;8444;52.012;5.048;2022-10-15T06:59:23;70.47;;;30.92;;
16660;SDS011;8444;52.012;5.048;2022-10-15T07:01:48;75.28;;;33.00;;
16660;SDS011;8444;52.012;5.048;2022-10-15T07:04:13;79.45;;;34.42;;
16660;SDS011;8444;52.012;5.048;2022-10-15T07:06:39;76.55;;;31.80;;
16660;SDS011;8444;52.012;5.048;2022-10-15T07:09:05;73.55;;;31.42;;
16660;SDS011;8444;52.012;5.048;2022-10-15T07:11:30;72.65;;;31.65;;
16660;SDS011;8444;52.012;5.048;2022-10-15T07:13:56;63.70;;;28.90;;
16660;SDS011;8444;52.012;5.048;2022-10-15T07:16:22;57.45;;;29.23;;
16660;SDS011;8444;52.012;5.048;2022-10-15T07:18:47;53.08;;;24.23;;
16660;SDS011;8444;52.012;5.048;2022-10-15T07:21:12;52.95;;;25.58;;
16660;SDS011;8444;52.012;5.048;2022-10-15T07:23:38;47.47;;;23.73;;
16660;SDS011;8444;52.012;5.048;2022-10-15T07:26:03;45.30;;;23.27;;
16660;SDS011;8444;52.012;5.048;2022-10-15T07:28:28;42.42;;;22.02;;
16660;SDS011;8444;52.012;5.048;2022-10-15T07:30:54;40.92;;;20.70;;
16660;SDS011;8444;52.012;5.048;2022-10-15T07:33:19;37.08;;;20.65;;
16660;SDS011;8444;52.012;5.048;2022-10-15T07:35:44;33.35;;;18.45;;
16660;SDS011;8444;52.012;5.048;2022-10-15T07:38:09;28.13;;;17.83;;
16660;SDS011;8444;52.012;5.048;2022-10-15T07:40:35;27.50;;;17.15;;
16660;SDS011;8444;52.012;5.048;2022-10-15T07:43:00;30.27;;;16.90;;
16660;SDS011;8444;52.012;5.048;2022-10-15T07:45:26;25.83;;;16.70;;
16660;SDS011;8444;52.012;5.048;2022-10-15T07:47:51;27.15;;;17.17;;
16660;SDS011;8444;52.012;5.048;2022-10-15T07:50:17;25.40;;;16.27;;
16660;SDS011;8444;52.012;5.048;2022-10-15T07:52:42;22.60;;;14.05;;
16660;SDS011;8444;52.012;5.048;2022-10-15T07:55:07;26.50;;;16.33;;
16660;SDS011;8444;52.012;5.048;2022-10-15T07:57:33;22.80;;;14.57;;
16660;SDS011;8444;52.012;5.048;2022-10-15T07:59:58;25.88;;;15.18;;
16660;SDS011;8444;52.012;5.048;2022-10-15T08:02:23;27.52;;;16.33;;
16660;SDS011;8444;52.012;5.048;2022-10-15T08:04:48;26.10;;;17.33;;
16660;SDS011;8444;52.012;5.048;2022-10-15T08:07:13;25.90;;;15.70;;
16660;SDS011;8444;52.012;5.048;2022-10-15T08:09:39;25.40;;;15.95;;
16660;SDS011;8444;52.012;5.048;2022-10-15T08:12:04;24.10;;;15.27;;
16660;SDS011;8444;52.012;5.048;2022-10-15T08:14:31;27.42;;;16.35;;
16660;SDS011;8444;52.012;5.048;2022-10-15T08:16:56;23.20;;;15.80;;
16660;SDS011;8444;52.012;5.048;2022-10-15T08:19:21;26.80;;;15.40;;
16660;SDS011;8444;52.012;5.048;2022-10-15T08:21:46;24.75;;;15.70;;
16660;SDS011;8444;52.012;5.048;2022-10-15T08:24:11;25.83;;;15.43;;
16660;SDS011;8444;52.012;5.048;2022-10-15T08:26:37;24.80;;;15.90;;
16660;SDS011;8444;52.012;5.048;2022-10-15T08:29:02;22.58;;;14.70;;
16660;SDS011;8444;52.012;5.048;2022-10-15T08:31:27;22.40;;;15.65;;
16660;SDS011;8444;52.012;5.048;2022-10-15T08:33:53;18.58;;;13.07;;
16660;SDS011;8444;52.012;5.048;2022-10-15T08:36:18;18.35;;;13.48;;
16660;SDS011;8444;52.012;5.048;2022-10-15T08:38:43;17.92;;;11.80;;
16660;SDS011;8444;52.012;5.048;2022-10-15T08:44:03;16.42;;;11.40;;
16660;SDS011;8444;52.012;5.048;2022-10-15T08:46:39;15.38;;;10.60;;
16660;SDS011;8444;52.012;5.048;2022-10-15T08:49:06;16.27;;;11.98;;
16660;SDS011;8444;52.012;5.048;2022-10-15T08:51:39;14.93;;;11.20;;
16660;SDS011;8444;52.012;5.048;2022-10-15T08:54:05;15.73;;;11.57;;
16660;SDS011;8444;52.012;5.048;2022-10-15T08:56:34;15.35;;;12.25;;
16660;SDS011;8444;52.012;5.048;2022-10-15T09:01:43;15.15;;;11.00;;
16660;SDS011;8444;52.012;5.048;2022-10-15T09:06:37;13.05;;;9.70;;
16660;SDS011;8444;52.012;5.048;2022-10-15T09:09:18;13.90;;;10.90;;
16660;SDS011;8444;52.012;5.048;2022-10-15T09:14:21;11.85;;;9.45;;
16660;SDS011;8444;52.012;5.048;2022-10-15T09:16:48;10.00;;;8.10;;
16660;SDS011;8444;52.012;5.048;2022-10-15T09:19:15;10.48;;;8.07;;
16660;SDS011;8444;52.012;5.048;2022-10-15T09:21:41;11.52;;;9.90;;
16660;SDS011;8444;52.012;5.048;2022-10-15T09:24:11;12.52;;;9.25;;
16660;SDS011;8444;52.012;5.048;2022-10-15T09:32:28;12.27;;;9.07;;
16660;SDS011;8444;52.012;5.048;2022-10-15T09:34:36;10.68;;;8.73;;
16660;SDS011;8444;52.012;5.048;2022-10-15T09:37:11;12.55;;;8.65;;
16660;SDS011;8444;52.012;5.048;2022-10-15T09:39:45;12.40;;;8.60;;
16660;SDS011;8444;52.012;5.048;2022-10-15T09:44:42;12.15;;;8.80;;
16660;SDS011;8444;52.012;5.048;2022-10-15T09:49:39;13.00;;;9.60;;
16660;SDS011;8444;52.012;5.048;2022-10-15T09:52:07;13.13;;;9.20;;
16660;SDS011;8444;52.012;5.048;2022-10-15T09:54:38;11.65;;;8.80;;
16660;SDS011;8444;52.012;5.048;2022-10-15T09:57:07;12.18;;;8.90;;
16660;SDS011;8444;52.012;5.048;2022-10-15T09:59:33;13.85;;;8.75;;
16660;SDS011;8444;52.012;5.048;2022-10-15T10:04:38;12.85;;;8.27;;
16660;SDS011;8444;52.012;5.048;2022-10-15T10:07:04;10.20;;;7.65;;
16660;SDS011;8444;52.012;5.048;2022-10-15T10:09:35;11.50;;;7.68;;
16660;SDS011;8444;52.012;5.048;2022-10-15T10:12:02;11.43;;;8.20;;
16660;SDS011;8444;52.012;5.048;2022-10-15T10:14:35;10.80;;;8.20;;
16660;SDS011;8444;52.012;5.048;2022-10-15T10:17:12;11.27;;;7.95;;
16660;SDS011;8444;52.012;5.048;2022-10-15T10:19:39;12.07;;;9.00;;
16660;SDS011;8444;52.012;5.048;2022-10-15T10:22:05;10.52;;;8.50;;
16660;SDS011;8444;52.012;5.048;2022-10-15T10:24:31;14.05;;;9.43;;
16660;SDS011;8444;52.012;5.048;2022-10-15T10:26:58;14.13;;;9.65;;
16660;SDS011;8444;52.012;5.048;2022-10-15T10:29:25;15.43;;;10.10;;
16660;SDS011;8444;52.012;5.048;2022-10-15T10:31:50;15.70;;;10.80;;
16660;SDS011;8444;52.012;5.048;2022-10-15T10:34:18;13.75;;;10.25;;
16660;SDS011;8444;52.012;5.048;2022-10-15T10:36:49;15.75;;;10.88;;
16660;SDS011;8444;52.012;5.048;2022-10-15T10:39:25;13.68;;;10.00;;
16660;SDS011;8444;52.012;5.048;2022-10-15T10:49:32;12.07;;;9.43;;
16660;SDS011;8444;52.012;5.048;2022-10-15T10:51:57;13.85;;;10.07;;
16660;SDS011;8444;52.012;5.048;2022-10-15T10:54:23;12.55;;;8.85;;
16660;SDS011;8444;52.012;5.048;2022-10-15T10:56:48;9.95;;;8.52;;
16660;SDS011;8444;52.012;5.048;2022-10-15T10:59:32;10.98;;;8.93;;
16660;SDS011;8444;52.012;5.048;2022-10-15T11:01:58;11.13;;;8.93;;
16660;SDS011;8444;52.012;5.048;2022-10-15T11:04:28;9.88;;;7.88;;
16660;SDS011;8444;52.012;5.048;2022-10-15T11:12:00;11.00;;;8.48;;
16660;SDS011;8444;52.012;5.048;2022-10-15T11:17:09;8.55;;;7.32;;
16660;SDS011;8444;52.012;5.048;2022-10-15T11:30:31;7.38;;;5.70;;
16660;SDS011;8444;52.012;5.048;2022-10-15T11:35:48;6.15;;;5.00;;
16660;SDS011;8444;52.012;5.048;2022-10-15T11:38:23;5.72;;;4.53;;
16660;SDS011;8444;52.012;5.048;2022-10-15T11:46:26;6.10;;;5.03;;
16660;SDS011;8444;52.012;5.048;2022-10-15T11:48:59;5.57;;;4.95;;
16660;SDS011;8444;52.012;5.048;2022-10-15T11:54:12;7.13;;;5.78;;
16660;SDS011;8444;52.012;5.048;2022-10-15T11:56:40;6.93;;;5.93;;
16660;SDS011;8444;52.012;5.048;2022-10-15T12:01:55;7.22;;;6.10;;
16660;SDS011;8444;52.012;5.048;2022-10-15T12:07:05;6.47;;;5.57;;
16660;SDS011;8444;52.012;5.048;2022-10-15T12:09:34;7.35;;;6.32;;
16660;SDS011;8444;52.012;5.048;2022-10-15T12:15:22;7.65;;;6.18;;
16660;SDS011;8444;52.012;5.048;2022-10-15T12:17:32;7.97;;;6.32;;
16660;SDS011;8444;52.012;5.048;2022-10-15T12:20:04;6.90;;;6.15;;
16660;SDS011;8444;52.012;5.048;2022-10-15T12:22:32;6.03;;;5.43;;
16660;SDS011;8444;52.012;5.048;2022-10-15T12:24:58;8.02;;;6.43;;
16660;SDS011;8444;52.012;5.048;2022-10-15T12:27:33;8.32;;;6.10;;
16660;SDS011;8444;52.012;5.048;2022-10-15T12:32:24;7.90;;;7.10;;
16660;SDS011;8444;52.012;5.048;2022-10-15T12:34:57;7.45;;;6.65;;
16660;SDS011;8444;52.012;5.048;2022-10-15T12:37:23;7.10;;;6.38;;
16660;SDS011;8444;52.012;5.048;2022-10-15T12:39:53;7.50;;;6.55;;
16660;SDS011;8444;52.012;5.048;2022-10-15T12:42:25;6.85;;;6.15;;
16660;SDS011;8444;52.012;5.048;2022-10-15T12:44:52;10.63;;;7.03;;
16660;SDS011;8444;52.012;5.048;2022-10-15T12:50:03;6.90;;;6.20;;
16660;SDS011;8444;52.012;5.048;2022-10-15T12:55:17;8.93;;;6.47;;
16660;SDS011;8444;52.012;5.048;2022-10-15T13:02:49;6.18;;;5.15;;
16660;SDS011;8444;52.012;5.048;2022-10-15T13:07:53;5.53;;;4.68;;
16660;SDS011;8444;52.012;5.048;2022-10-15T13:10:33;7.65;;;4.60;;
16660;SDS011;8444;52.012;5.048;2022-10-15T13:13:00;4.75;;;4.07;;
16660;SDS011;8444;52.012;5.048;2022-10-15T13:15:27;5.70;;;4.47;;
16660;SDS011;8444;52.012;5.048;2022-10-15T13:18:04;7.13;;;5.45;;
16660;SDS011;8444;52.012;5.048;2022-10-15T13:20:33;5.00;;;4.50;;
16660;SDS011;8444;52.012;5.048;2022-10-15T13:23:13;4.95;;;4.28;;
16660;SDS011;8444;52.012;5.048;2022-10-15T13:25:40;5.47;;;4.35;;
16660;SDS011;8444;52.012;5.048;2022-10-15T13:30:49;5.63;;;4.95;;
16660;SDS011;8444;52.012;5.048;2022-10-15T13:33:14;4.88;;;4.38;;
16660;SDS011;8444;52.012;5.048;2022-10-15T13:35:40;3.83;;;3.42;;
16660;SDS011;8444;52.012;5.048;2022-10-15T13:38:05;3.88;;;3.47;;
16660;SDS011;8444;52.012;5.048;2022-10-15T13:40:30;4.03;;;3.45;;
16660;SDS011;8444;52.012;5.048;2022-10-15T13:43:03;6.20;;;4.03;;
16660;SDS011;8444;52.012;5.048;2022-10-15T13:45:30;4.45;;;4.03;;
16660;SDS011;8444;52.012;5.048;2022-10-15T13:47:55;3.85;;;3.55;;
16660;SDS011;8444;52.012;5.048;2022-10-15T13:50:30;3.95;;;3.58;;
16660;SDS011;8444;52.012;5.048;2022-10-15T13:55:31;2.70;;;2.50;;
16660;SDS011;8444;52.012;5.048;2022-10-15T13:58:02;4.13;;;3.72;;
16660;SDS011;8444;52.012;5.048;2022-10-15T14:00:30;3.95;;;2.83;;
16660;SDS011;8444;52.012;5.048;2022-10-15T14:03:15;3.92;;;3.47;;
16660;SDS011;8444;52.012;5.048;2022-10-15T14:05:45;3.92;;;2.67;;
16660;SDS011;8444;52.012;5.048;2022-10-15T14:08:14;2.28;;;2.00;;
16660;SDS011;8444;52.012;5.048;2022-10-15T14:10:39;1.70;;;1.60;;
16660;SDS011;8444;52.012;5.048;2022-10-15T14:13:04;2.80;;;2.10;;
16660;SDS011;8444;52.012;5.048;2022-10-15T14:15:46;2.10;;;1.83;;
16660;SDS011;8444;52.012;5.048;2022-10-15T14:18:12;2.63;;;1.50;;
16660;SDS011;8444;52.012;5.048;2022-10-15T14:20:43;1.63;;;1.15;;
16660;SDS011;8444;52.012;5.048;2022-10-15T14:23:15;1.95;;;1.02;;
16660;SDS011;8444;52.012;5.048;2022-10-15T14:25:41;1.70;;;1.25;;
16660;SDS011;8444;52.012;5.048;2022-10-15T14:28:14;2.65;;;0.60;;
16660;SDS011;8444;52.012;5.048;2022-10-15T14:30:42;3.22;;;0.70;;
16660;SDS011;8444;52.012;5.048;2022-10-15T14:33:28;2.10;;;0.50;;
16660;SDS011;8444;52.012;5.048;2022-10-15T14:38:37;3.22;;;0.70;;
16660;SDS011;8444;52.012;5.048;2022-10-15T14:43:47;1.88;;;0.52;;
16660;SDS011;8444;52.012;5.048;2022-10-15T14:46:23;2.55;;;0.95;;
16660;SDS011;8444;52.012;5.048;2022-10-15T14:48:48;2.00;;;1.50;;
16660;SDS011;8444;52.012;5.048;2022-10-15T14:51:16;2.08;;;1.00;;
16660;SDS011;8444;52.012;5.048;2022-10-15T14:53:43;3.08;;;0.88;;
16660;SDS011;8444;52.012;5.048;2022-10-15T14:56:13;2.80;;;0.73;;
16660;SDS011;8444;52.012;5.048;2022-10-15T14:58:39;1.73;;;0.80;;
16660;SDS011;8444;52.012;5.048;2022-10-15T15:01:05;2.63;;;0.70;;
16660;SDS011;8444;52.012;5.048;2022-10-15T15:03:38;2.20;;;0.70;;
16660;SDS011;8444;52.012;5.048;2022-10-15T15:06:04;2.22;;;0.75;;
16660;SDS011;8444;52.012;5.048;2022-10-15T15:08:29;1.67;;;0.70;;
16660;SDS011;8444;52.012;5.048;2022-10-15T15:10:55;1.25;;;0.47;;
16660;SDS011;8444;52.012;5.048;2022-10-15T15:13:22;2.33;;;0.70;;
16660;SDS011;8444;52.012;5.048;2022-10-15T15:15:47;3.90;;;0.93;;
16660;SDS011;8444;52.012;5.048;2022-10-15T15:18:13;3.03;;;0.75;;
16660;SDS011;8444;52.012;5.048;2022-10-15T15:20:39;1.40;;;1.27;;
16660;SDS011;8444;52.012;5.048;2022-10-15T15:23:04;2.03;;;0.60;;
16660;SDS011;8444;52.012;5.048;2022-10-15T15:25:31;4.78;;;1.02;;
16660;SDS011;8444;52.012;5.048;2022-10-15T15:27:58;1.60;;;0.77;;
16660;SDS011;8444;52.012;5.048;2022-10-15T15:30:24;0.85;;;0.55;;
16660;SDS011;8444;52.012;5.048;2022-10-15T15:32:49;3.47;;;0.73;;
16660;SDS011;8444;52.012;5.048;2022-10-15T15:35:22;3.42;;;0.82;;
16660;SDS011;8444;52.012;5.048;2022-10-15T15:37:48;3.80;;;1.20;;
16660;SDS011;8444;52.012;5.048;2022-10-15T15:40:13;3.17;;;0.80;;
16660;SDS011;8444;52.012;5.048;2022-10-15T15:42:39;3.60;;;0.88;;
16660;SDS011;8444;52.012;5.048;2022-10-15T15:45:05;2.72;;;0.50;;
16660;SDS011;8444;52.012;5.048;2022-10-15T15:47:30;1.23;;;0.80;;
16660;SDS011;8444;52.012;5.048;2022-10-15T15:49:55;2.10;;;0.60;;
16660;SDS011;8444;52.012;5.048;2022-10-15T15:52:20;2.22;;;0.50;;
16660;SDS011;8444;52.012;5.048;2022-10-15T15:54:45;1.97;;;0.70;;
16660;SDS011;8444;52.012;5.048;2022-10-15T15:57:11;1.98;;;1.08;;
16660;SDS011;8444;52.012;5.048;2022-10-15T15:59:37;5.15;;;2.00;;
16660;SDS011;8444;52.012;5.048;2022-10-15T16:02:02;3.47;;;1.80;;
16660;SDS011;8444;52.012;5.048;2022-10-15T16:04:27;2.67;;;1.27;;
16660;SDS011;8444;52.012;5.048;2022-10-15T16:06:52;2.15;;;1.52;;
16660;SDS011;8444;52.012;5.048;2022-10-15T16:09:18;2.80;;;1.40;;
16660;SDS011;8444;52.012;5.048;2022-10-15T16:11:44;3.33;;;1.52;;
16660;SDS011;8444;52.012;5.048;2022-10-15T16:14:10;3.30;;;1.50;;
16660;SDS011;8444;52.012;5.048;2022-10-15T16:16:35;3.97;;;1.98;;
16660;SDS011;8444;52.012;5.048;2022-10-15T16:19:01;2.88;;;1.60;;
16660;SDS011;8444;52.012;5.048;2022-10-15T16:21:26;2.05;;;1.45;;
16660;SDS011;8444;52.012;5.048;2022-10-15T16:23:52;4.50;;;1.60;;
16660;SDS011;8444;52.012;5.048;2022-10-15T16:26:17;5.50;;;1.45;;
16660;SDS011;8444;52.012;5.048;2022-10-15T16:28:43;3.17;;;1.20;;
16660;SDS011;8444;52.012;5.048;2022-10-15T16:31:12;4.60;;;1.88;;
16660;SDS011;8444;52.012;5.048;2022-10-15T16:33:37;4.30;;;1.30;;
16660;SDS011;8444;52.012;5.048;2022-10-15T16:36:03;3.13;;;1.50;;
16660;SDS011;8444;52.012;5.048;2022-10-15T16:38:28;4.10;;;1.48;;
16660;SDS011;8444;52.012;5.048;2022-10-15T16:40:53;3.55;;;1.83;;
16660;SDS011;8444;52.012;5.048;2022-10-15T16:43:18;6.28;;;1.83;;
16660;SDS011;8444;52.012;5.048;2022-10-15T16:45:43;3.17;;;1.90;;